createdAt,value
2019-01-10T00:01:18.424Z,0.60
2019-01-10T00:03:45.757Z,0.70
2019-01-10T00:06:13.104Z,0.70
2019-01-10T00:08:40.411Z,0.50
2019-01-10T00:11:07.854Z,0.80
2019-01-10T00:13:35.151Z,0.90
2019-01-10T00:16:02.408Z,0.60
2019-01-10T00:18:29.839Z,0.73
2019-01-10T00:20:57.261Z,0.63
2019-01-10T00:23:24.606Z,0.50
2019-01-10T00:25:52.020Z,0.67
2019-01-10T00:28:19.325Z,0.70
2019-01-10T00:30:46.585Z,0.57
2019-01-10T00:33:14.125Z,0.57
2019-01-10T00:35:41.436Z,0.50
2019-01-10T00:38:08.655Z,0.57
2019-01-10T00:40:35.996Z,0.73
2019-01-10T00:43:03.526Z,0.50
2019-01-10T00:45:30.874Z,0.40
2019-01-10T00:47:58.279Z,0.80
2019-01-10T00:50:25.561Z,0.50
2019-01-10T00:52:52.972Z,0.50
2019-01-10T00:55:20.319Z,0.60
2019-01-10T00:57:47.700Z,0.70
2019-01-10T01:00:21.378Z,0.20
2019-01-10T01:02:48.710Z,0.80
2019-01-10T01:05:16.341Z,0.50
2019-01-10T01:07:43.706Z,0.53
2019-01-10T01:10:14.247Z,0.80
2019-01-10T01:12:41.483Z,0.60
2019-01-10T01:15:10.824Z,0.30
2019-01-10T01:17:38.200Z,0.60
2019-01-10T01:20:07.072Z,0.70
2019-01-10T01:22:54.008Z,0.70
2019-01-10T01:25:21.444Z,0.70
2019-01-10T01:27:48.897Z,0.70
2019-01-10T01:30:18.424Z,0.50
2019-01-10T01:32:45.776Z,0.50
2019-01-10T01:35:14.094Z,0.73
2019-01-10T01:37:41.446Z,0.60
2019-01-10T01:40:10.135Z,0.70
2019-01-10T01:42:37.645Z,0.70
2019-01-10T01:45:06.148Z,0.70
2019-01-10T01:47:33.462Z,0.83
2019-01-10T01:50:00.794Z,0.40
2019-01-10T01:52:28.171Z,0.60
2019-01-10T01:54:55.496Z,0.60
2019-01-10T01:57:23.027Z,0.73
2019-01-10T01:59:50.779Z,0.70
2019-01-10T02:02:18.011Z,0.43
2019-01-10T02:04:45.324Z,0.80
2019-01-10T02:07:14.564Z,0.67
2019-01-10T02:09:41.778Z,0.70
2019-01-10T02:12:09.262Z,0.43
2019-01-10T02:14:36.566Z,0.70
2019-01-10T02:17:03.944Z,0.70
2019-01-10T02:19:31.576Z,0.40
2019-01-10T02:21:59.092Z,0.53
2019-01-10T02:24:26.556Z,0.50
2019-01-10T02:26:53.779Z,0.60
2019-01-10T02:29:21.049Z,0.57
2019-01-10T02:31:48.679Z,0.50
2019-01-10T02:34:15.995Z,0.60
2019-01-10T02:36:43.348Z,0.60
2019-01-10T02:39:10.673Z,1.00
2019-01-10T02:41:38.023Z,0.70
2019-01-10T02:44:05.243Z,0.33
2019-01-10T02:46:32.601Z,0.63
2019-01-10T02:48:59.867Z,0.73
2019-01-10T02:51:27.715Z,0.43
2019-01-10T02:53:55.479Z,0.50
2019-01-10T02:56:22.897Z,0.60
2019-01-10T02:58:50.281Z,0.40
2019-01-10T03:01:17.614Z,0.50
2019-01-10T03:03:45.049Z,0.40
2019-01-10T03:06:12.399Z,0.57
2019-01-10T03:08:39.655Z,0.87
2019-01-10T03:11:07.088Z,0.50
2019-01-10T03:13:36.912Z,0.53
2019-01-10T03:16:03.595Z,0.83
2019-01-10T03:18:31.342Z,0.40
2019-01-10T03:20:58.626Z,0.60
2019-01-10T03:23:26.043Z,0.50
2019-01-10T03:25:53.265Z,0.50
2019-01-10T03:28:20.641Z,0.73
2019-01-10T03:30:47.996Z,0.77
2019-01-10T03:33:15.354Z,0.60
2019-01-10T03:35:42.687Z,0.60
2019-01-10T03:38:10.106Z,0.70
2019-01-10T03:40:37.576Z,0.80
2019-01-10T03:43:04.930Z,0.90
2019-01-10T03:45:51.961Z,0.90
2019-01-10T03:48:19.324Z,1.00
2019-01-10T03:50:46.632Z,0.60
2019-01-10T03:53:13.985Z,0.60
2019-01-10T03:55:41.319Z,0.80
2019-01-10T03:58:08.552Z,0.97
2019-01-10T04:00:35.982Z,0.80
2019-01-10T04:03:03.399Z,0.80
2019-01-10T04:05:30.652Z,0.63
2019-01-10T04:07:57.880Z,0.80
2019-01-10T04:10:25.140Z,1.00
2019-01-10T04:12:52.465Z,0.83
2019-01-10T04:15:19.783Z,0.87
2019-01-10T04:17:47.410Z,0.80
2019-01-10T04:20:16.553Z,1.03
2019-01-10T04:22:43.884Z,1.10
2019-01-10T04:25:11.783Z,1.00
2019-01-10T04:27:39.101Z,1.00
2019-01-10T04:30:09.341Z,0.90
2019-01-10T04:32:36.630Z,1.57
2019-01-10T04:35:04.442Z,1.10
2019-01-10T04:37:31.800Z,1.00
2019-01-10T04:39:59.235Z,1.03
2019-01-10T04:42:26.602Z,1.10
2019-01-10T04:44:53.925Z,1.10
2019-01-10T04:47:21.345Z,1.27
2019-01-10T04:49:48.675Z,1.10
2019-01-10T04:52:16.007Z,1.10
2019-01-10T04:54:43.556Z,1.00
2019-01-10T04:57:10.848Z,1.07
2019-01-10T04:59:38.111Z,1.10
2019-01-10T05:02:05.401Z,1.00
2019-01-10T05:04:32.741Z,0.90
2019-01-10T05:07:00.059Z,1.07
2019-01-10T05:09:27.409Z,0.93
2019-01-10T05:11:54.765Z,0.93
2019-01-10T05:14:22.104Z,1.07
2019-01-10T05:16:49.464Z,0.90
2019-01-10T05:19:16.789Z,1.00
2019-01-10T05:21:44.098Z,1.00
2019-01-10T05:24:11.363Z,1.10
2019-01-10T05:26:38.799Z,1.10
2019-01-10T05:29:06.028Z,1.07
2019-01-10T05:31:33.384Z,1.30
2019-01-10T05:34:00.806Z,1.40
2019-01-10T05:36:28.056Z,1.60
2019-01-10T05:38:55.619Z,1.23
2019-01-10T05:41:23.052Z,1.27
2019-01-10T05:43:50.375Z,1.10
2019-01-10T05:46:17.804Z,1.17
2019-01-10T05:49:04.619Z,1.20
2019-01-10T05:51:31.877Z,0.93
2019-01-10T05:53:59.216Z,0.97
2019-01-10T05:56:26.677Z,1.10
2019-01-10T05:58:54.024Z,1.30
2019-01-10T06:01:21.360Z,1.20
2019-01-10T06:03:53.151Z,1.20
2019-01-10T06:06:17.708Z,1.20
2019-01-10T06:08:45.101Z,1.30
2019-01-10T06:11:12.436Z,1.17
2019-01-10T06:13:39.739Z,1.10
2019-01-10T06:16:07.058Z,1.20
2019-01-10T06:18:34.520Z,1.00
2019-01-10T06:21:01.883Z,1.30
2019-01-10T06:23:29.470Z,1.60
2019-01-10T06:25:56.900Z,1.00
2019-01-10T06:28:24.247Z,1.00
2019-01-10T06:30:51.454Z,1.37
2019-01-10T06:33:18.603Z,1.50
2019-01-10T06:35:45.930Z,1.20
2019-01-10T06:38:13.303Z,1.17
2019-01-10T06:40:40.553Z,0.90
2019-01-10T06:43:07.863Z,1.30
2019-01-10T06:45:35.096Z,1.30
2019-01-10T06:48:02.299Z,1.20
2019-01-10T06:50:29.763Z,1.40
2019-01-10T06:52:57.165Z,1.23
2019-01-10T06:55:24.514Z,1.20
2019-01-10T06:57:51.741Z,1.47
2019-01-10T07:00:28.981Z,1.43
2019-01-10T07:02:56.486Z,1.50
2019-01-10T07:05:23.808Z,1.37
2019-01-10T07:07:56.206Z,1.50
2019-01-10T07:10:25.361Z,1.40
2019-01-10T07:12:52.743Z,1.30
2019-01-10T07:15:20.474Z,1.50
2019-01-10T07:17:47.830Z,1.10
2019-01-10T07:20:15.753Z,1.20
2019-01-10T07:22:45.368Z,0.90
2019-01-10T07:25:12.623Z,1.20
2019-01-10T07:27:39.990Z,1.37
2019-01-10T07:30:09.342Z,1.07
2019-01-10T07:32:36.680Z,1.00
2019-01-10T07:35:08.245Z,1.10
2019-01-10T07:37:35.587Z,1.20
2019-01-10T07:40:05.959Z,1.20
2019-01-10T07:42:33.281Z,1.50
2019-01-10T07:45:03.276Z,1.30
2019-01-10T07:47:46.501Z,1.30
2019-01-10T07:50:13.909Z,1.20
2019-01-10T07:52:41.283Z,1.30
2019-01-10T07:55:08.610Z,1.33
2019-01-10T07:57:35.939Z,1.07
2019-01-10T08:00:04.480Z,1.43
2019-01-10T08:02:31.810Z,1.70
2019-01-10T08:04:59.422Z,1.53
2019-01-10T08:07:26.765Z,1.30
2019-01-10T08:09:54.031Z,1.10
2019-01-10T08:12:21.292Z,1.17
2019-01-10T08:14:48.637Z,1.20
2019-01-10T08:17:16.358Z,1.13
2019-01-10T08:19:43.689Z,1.30
2019-01-10T08:22:11.111Z,1.00
2019-01-10T08:24:38.465Z,1.00
2019-01-10T08:27:05.788Z,1.00
2019-01-10T08:29:33.633Z,1.00
2019-01-10T08:32:00.988Z,1.20
2019-01-10T08:34:28.289Z,1.00
2019-01-10T08:36:55.508Z,0.87
2019-01-10T08:39:22.758Z,0.70
2019-01-10T08:41:50.114Z,0.80
2019-01-10T08:44:17.527Z,0.90
2019-01-10T08:46:44.800Z,0.80
2019-01-10T08:49:12.140Z,1.00
2019-01-10T08:51:39.484Z,0.97
2019-01-10T08:54:06.941Z,1.10
2019-01-10T08:56:34.296Z,1.20
2019-01-10T08:59:01.521Z,0.90
2019-01-10T09:01:28.965Z,0.90
2019-01-10T09:03:56.286Z,1.00
2019-01-10T09:06:23.558Z,0.97
2019-01-10T09:08:50.966Z,1.00
2019-01-10T09:11:18.199Z,0.80
2019-01-10T09:13:45.792Z,0.70
2019-01-10T09:16:13.104Z,0.80
2019-01-10T09:18:40.463Z,0.90
2019-01-10T09:21:07.849Z,0.70
2019-01-10T09:23:35.198Z,0.93
2019-01-10T09:26:02.535Z,1.10
2019-01-10T09:28:29.895Z,1.30
2019-01-10T09:30:57.254Z,1.27
2019-01-10T09:33:24.479Z,1.30
2019-01-10T09:35:51.819Z,1.00
2019-01-10T09:38:19.135Z,1.00
2019-01-10T09:40:46.545Z,1.10
2019-01-10T09:43:13.931Z,1.10
2019-01-10T09:45:43.532Z,1.10
2019-01-10T09:48:10.410Z,1.20
2019-01-10T09:50:37.944Z,1.07
2019-01-10T09:53:05.478Z,1.30
2019-01-10T09:55:32.934Z,1.40
2019-01-10T09:58:00.187Z,1.33
2019-01-10T10:00:28.784Z,1.17
2019-01-10T10:02:56.240Z,1.37
2019-01-10T10:05:23.760Z,1.40
2019-01-10T10:07:51.077Z,1.33
2019-01-10T10:10:18.565Z,1.40
2019-01-10T10:12:45.901Z,1.20
2019-01-10T10:15:15.513Z,1.53
2019-01-10T10:17:42.816Z,1.10
2019-01-10T10:20:14.716Z,1.30
2019-01-10T10:22:41.661Z,1.10
2019-01-10T10:25:08.968Z,1.03
2019-01-10T10:27:36.304Z,1.17
2019-01-10T10:30:06.343Z,1.40
2019-01-10T10:32:33.649Z,1.50
2019-01-10T10:35:00.993Z,1.30
2019-01-10T10:37:28.324Z,1.10
2019-01-10T10:39:56.096Z,1.10
2019-01-10T10:42:23.425Z,0.93
2019-01-10T10:44:50.660Z,1.10
2019-01-10T10:47:17.892Z,0.97
2019-01-10T10:49:45.232Z,1.00
2019-01-10T10:52:12.654Z,1.20
2019-01-10T10:54:39.900Z,1.10
2019-01-10T10:57:07.635Z,1.13
2019-01-10T10:59:34.937Z,1.00
2019-01-10T11:02:02.179Z,1.20
2019-01-10T11:04:29.401Z,1.17
2019-01-10T11:06:56.739Z,0.97
2019-01-10T11:09:24.004Z,1.10
2019-01-10T11:11:51.372Z,0.90
2019-01-10T11:14:18.718Z,1.13
2019-01-10T11:16:46.100Z,1.00
2019-01-10T11:19:13.411Z,0.90
2019-01-10T11:21:40.771Z,1.10
2019-01-10T11:24:08.004Z,1.00
2019-01-10T11:26:35.220Z,1.00
2019-01-10T11:29:02.567Z,0.90
2019-01-10T11:31:29.680Z,1.00
2019-01-10T11:33:56.935Z,0.97
2019-01-10T11:36:24.283Z,0.93
2019-01-10T11:38:51.646Z,1.07
2019-01-10T11:41:19.058Z,1.00
2019-01-10T11:43:46.444Z,1.00
2019-01-10T11:46:19.450Z,0.80
2019-01-10T11:48:43.005Z,0.97
2019-01-10T11:51:10.390Z,0.93
2019-01-10T11:53:37.810Z,0.70
2019-01-10T11:56:05.300Z,1.00
2019-01-10T11:58:32.650Z,1.27
2019-01-10T12:01:00.068Z,1.00
2019-01-10T12:03:27.391Z,1.20
2019-01-10T12:05:54.695Z,1.00
2019-01-10T12:08:21.936Z,0.87
2019-01-10T12:10:49.247Z,0.90
2019-01-10T12:13:16.521Z,0.80
2019-01-10T12:15:43.920Z,0.83
2019-01-10T12:18:11.242Z,1.07
2019-01-10T12:20:38.548Z,1.40
2019-01-10T12:23:05.889Z,1.00
2019-01-10T12:25:33.140Z,1.00
2019-01-10T12:28:00.376Z,0.77
2019-01-10T12:30:27.718Z,0.90
2019-01-10T12:32:54.963Z,0.70
2019-01-10T12:35:23.393Z,0.80
2019-01-10T12:37:50.641Z,0.90
2019-01-10T12:40:17.962Z,0.70
2019-01-10T12:42:45.261Z,0.90
2019-01-10T12:45:13.656Z,0.90
2019-01-10T12:47:40.896Z,0.70
2019-01-10T12:50:12.788Z,0.80
2019-01-10T12:52:40.129Z,1.07
2019-01-10T12:55:07.368Z,1.17
2019-01-10T12:57:34.748Z,0.80
2019-01-10T13:00:02.605Z,1.10
2019-01-10T13:02:29.911Z,0.60
2019-01-10T13:04:57.310Z,0.90
2019-01-10T13:07:24.633Z,1.00
2019-01-10T13:09:52.002Z,0.77
2019-01-10T13:12:19.369Z,0.70
2019-01-10T13:14:46.704Z,1.00
2019-01-10T13:17:13.994Z,1.10
2019-01-10T13:19:41.343Z,0.70
2019-01-10T13:22:08.690Z,0.67
2019-01-10T13:24:36.144Z,0.73
2019-01-10T13:27:03.503Z,0.67
2019-01-10T13:29:30.922Z,0.80
2019-01-10T13:31:58.241Z,0.70
2019-01-10T13:34:25.887Z,0.70
2019-01-10T13:36:53.144Z,0.90
2019-01-10T13:39:20.703Z,0.80
2019-01-10T13:41:47.895Z,1.00
2019-01-10T13:44:15.145Z,0.90
2019-01-10T13:46:42.664Z,0.80
2019-01-10T13:49:10.024Z,0.83
2019-01-10T13:51:37.369Z,0.97
2019-01-10T13:54:04.738Z,0.80
2019-01-10T13:56:31.960Z,0.93
2019-01-10T13:58:59.317Z,0.90
2019-01-10T14:01:26.530Z,0.70
2019-01-10T14:03:53.922Z,0.87
2019-01-10T14:06:21.180Z,0.90
2019-01-10T14:08:48.455Z,0.93
2019-01-10T14:11:15.706Z,0.90
2019-01-10T14:13:43.115Z,0.80
2019-01-10T14:16:10.459Z,0.87
2019-01-10T14:18:37.796Z,0.80
2019-01-10T14:21:05.125Z,0.90
2019-01-10T14:23:32.468Z,0.80
2019-01-10T14:25:59.822Z,0.93
2019-01-10T14:28:27.051Z,0.90
2019-01-10T14:30:54.413Z,0.93
2019-01-10T14:33:21.772Z,1.20
2019-01-10T14:35:49.575Z,1.00
2019-01-10T14:38:17.064Z,0.83
2019-01-10T14:40:44.513Z,0.87
2019-01-10T14:43:11.736Z,1.00
2019-01-10T14:45:40.452Z,0.83
2019-01-10T14:48:07.855Z,1.10
2019-01-10T14:50:35.811Z,0.90
2019-01-10T14:53:03.436Z,0.90
2019-01-10T14:55:30.643Z,0.70
2019-01-10T14:57:57.951Z,0.80
2019-01-10T15:00:25.506Z,0.80
2019-01-10T15:02:52.976Z,0.80
2019-01-10T15:05:20.527Z,0.90
2019-01-10T15:07:47.916Z,1.17
2019-01-10T15:10:15.851Z,0.80
2019-01-10T15:12:43.700Z,0.90
2019-01-10T15:15:13.725Z,0.93
2019-01-10T15:17:41.058Z,0.70
2019-01-10T15:20:11.615Z,0.80
2019-01-10T15:22:38.941Z,0.70
2019-01-10T15:25:06.222Z,0.77
2019-01-10T15:27:33.435Z,0.60
2019-01-10T15:30:00.780Z,1.00
2019-01-10T15:32:28.215Z,1.10
2019-01-10T15:34:55.566Z,1.23
2019-01-10T15:37:22.923Z,1.10
2019-01-10T15:39:50.157Z,1.10
2019-01-10T15:42:17.491Z,0.67
2019-01-10T15:44:44.724Z,0.90
2019-01-10T15:47:11.971Z,0.80
2019-01-10T15:49:39.188Z,0.70
2019-01-10T15:52:06.562Z,0.90
2019-01-10T15:54:33.897Z,0.70
2019-01-10T15:57:01.207Z,0.87
2019-01-10T15:59:28.464Z,0.77
2019-01-10T16:01:55.788Z,0.90
2019-01-10T16:04:23.101Z,0.70
2019-01-10T16:06:50.448Z,0.93
2019-01-10T16:09:17.833Z,0.70
2019-01-10T16:11:45.138Z,0.87
2019-01-10T16:14:12.392Z,0.80
2019-01-10T16:16:39.699Z,0.80
2019-01-10T16:19:06.939Z,0.80
2019-01-10T16:21:34.243Z,0.70
2019-01-10T16:24:01.552Z,0.80
2019-01-10T16:26:29.213Z,0.77
2019-01-10T16:28:56.534Z,1.07
2019-01-10T16:31:23.884Z,0.47
2019-01-10T16:33:51.139Z,0.90
2019-01-10T16:36:18.471Z,0.70
2019-01-10T16:38:45.764Z,0.73
2019-01-10T16:41:13.076Z,1.10
2019-01-10T16:43:40.425Z,0.97
2019-01-10T16:46:07.644Z,1.10
2019-01-10T16:48:34.879Z,0.70
2019-01-10T16:51:02.233Z,1.00
2019-01-10T16:53:29.597Z,0.87
2019-01-10T16:55:56.921Z,0.90
2019-01-10T16:58:24.274Z,0.87
2019-01-10T17:00:51.583Z,0.80
2019-01-10T17:03:18.816Z,0.90
2019-01-10T17:05:46.111Z,0.90
2019-01-10T17:08:13.340Z,1.20
2019-01-10T17:10:40.754Z,1.00
2019-01-10T17:13:08.190Z,1.03
2019-01-10T17:15:35.497Z,0.97
2019-01-10T17:18:03.210Z,1.23
2019-01-10T17:20:31.624Z,1.00
2019-01-10T17:22:59.193Z,1.00
2019-01-10T17:25:26.474Z,1.30
2019-01-10T17:27:53.936Z,1.30
2019-01-10T17:30:23.937Z,1.50
2019-01-10T17:32:51.267Z,1.30
2019-01-10T17:35:20.128Z,1.07
2019-01-10T17:37:47.464Z,1.20
2019-01-10T17:40:16.227Z,1.30
2019-01-10T17:42:44.987Z,1.10
2019-01-10T17:45:15.199Z,1.20
2019-01-10T17:47:44.150Z,1.20
2019-01-10T17:50:13.542Z,1.63
2019-01-10T17:52:40.862Z,1.50
2019-01-10T17:55:08.381Z,1.40
2019-01-10T17:57:35.685Z,1.40
2019-01-10T18:00:04.650Z,1.80
2019-01-10T18:02:31.997Z,1.50
2019-01-10T18:04:59.338Z,1.40
2019-01-10T18:07:26.573Z,1.57
2019-01-10T18:09:53.902Z,1.57
2019-01-10T18:12:21.119Z,1.70
2019-01-10T18:14:48.480Z,1.93
2019-01-10T18:17:15.787Z,2.00
2019-01-10T18:19:43.175Z,4.67
2019-01-10T18:22:10.484Z,2.37
2019-01-10T18:24:37.827Z,8.90
2019-01-10T18:27:05.071Z,2.60
2019-01-10T18:29:33.130Z,2.60
2019-01-10T18:32:00.635Z,10.27
2019-01-10T18:34:28.093Z,2.57
2019-01-10T18:36:55.521Z,3.97
2019-01-10T18:39:22.784Z,2.87
2019-01-10T18:41:49.991Z,5.30
2019-01-10T18:44:17.425Z,33.40
2019-01-10T18:46:44.782Z,5.23
2019-01-10T18:49:12.112Z,2.70
2019-01-10T18:51:39.474Z,3.00
2019-01-10T18:54:06.714Z,3.03
2019-01-10T18:56:34.051Z,3.20
2019-01-10T18:59:01.422Z,3.83
2019-01-10T19:01:28.912Z,5.47
2019-01-10T19:03:56.234Z,4.20
2019-01-10T19:06:23.503Z,3.70
2019-01-10T19:08:50.817Z,3.60
2019-01-10T19:11:18.144Z,3.57
2019-01-10T19:13:45.376Z,4.50
2019-01-10T19:16:12.762Z,3.77
2019-01-10T19:18:40.069Z,4.20
2019-01-10T19:21:07.388Z,5.03
2019-01-10T19:23:34.732Z,4.33
2019-01-10T19:26:02.080Z,4.80
2019-01-10T19:28:29.392Z,4.83
2019-01-10T19:30:56.635Z,5.00
2019-01-10T19:33:23.902Z,6.10
2019-01-10T19:35:51.208Z,6.10
2019-01-10T19:38:18.589Z,5.80
2019-01-10T19:40:46.107Z,5.70
2019-01-10T19:43:13.439Z,5.50
2019-01-10T19:45:40.707Z,5.40
2019-01-10T19:48:09.761Z,6.27
2019-01-10T19:50:37.134Z,5.80
2019-01-10T19:53:04.513Z,6.30
2019-01-10T19:55:31.992Z,6.10
2019-01-10T19:57:59.350Z,5.73
2019-01-10T20:00:32.145Z,5.93
2019-01-10T20:02:59.732Z,6.07
2019-01-10T20:05:27.358Z,5.97
2019-01-10T20:07:54.684Z,6.20
2019-01-10T20:10:21.920Z,5.30
2019-01-10T20:12:49.705Z,6.00
2019-01-10T20:15:17.015Z,5.80
2019-01-10T20:17:44.251Z,6.47
2019-01-10T20:20:17.977Z,5.97
2019-01-10T20:22:45.189Z,6.40
2019-01-10T20:25:12.525Z,7.10
2019-01-10T20:27:39.731Z,6.97
2019-01-10T20:30:08.310Z,7.47
2019-01-10T20:32:35.520Z,6.73
2019-01-10T20:35:03.260Z,6.20
2019-01-10T20:37:30.578Z,6.80
2019-01-10T20:39:57.754Z,6.30
2019-01-10T20:42:25.049Z,6.40
2019-01-10T20:44:52.395Z,7.30
2019-01-10T20:47:19.710Z,6.70
2019-01-10T20:49:47.142Z,7.13
2019-01-10T20:52:14.355Z,6.23
2019-01-10T20:54:41.599Z,7.40
2019-01-10T20:57:08.883Z,6.80
2019-01-10T20:59:36.118Z,8.53
2019-01-10T21:02:03.565Z,8.83
2019-01-10T21:04:30.888Z,8.73
2019-01-10T21:06:58.345Z,8.87
2019-01-10T21:09:25.668Z,9.00
2019-01-10T21:11:53.024Z,9.13
2019-01-10T21:14:20.372Z,9.80
2019-01-10T21:16:47.608Z,9.00
2019-01-10T21:19:14.991Z,9.93
2019-01-10T21:21:42.412Z,10.03
2019-01-10T21:24:09.796Z,9.70
2019-01-10T21:26:37.095Z,11.17
2019-01-10T21:29:04.554Z,11.47
2019-01-10T21:31:31.916Z,9.83
2019-01-10T21:33:59.383Z,10.73
2019-01-10T21:36:26.947Z,9.27
2019-01-10T21:38:54.185Z,9.73
2019-01-10T21:41:21.576Z,9.60
2019-01-10T21:43:48.927Z,9.83
2019-01-10T21:46:16.284Z,9.90
2019-01-10T21:48:43.953Z,9.63
2019-01-10T21:51:11.362Z,10.27
2019-01-10T21:53:38.894Z,9.10
2019-01-10T21:56:08.862Z,9.77
2019-01-10T21:58:36.224Z,11.03
2019-01-10T22:01:03.691Z,10.63
2019-01-10T22:03:31.073Z,10.73
2019-01-10T22:05:58.389Z,11.93
2019-01-10T22:08:26.023Z,10.63
2019-01-10T22:10:53.358Z,9.97
2019-01-10T22:13:20.708Z,11.37
2019-01-10T22:16:11.012Z,10.90
2019-01-10T22:18:41.553Z,11.07
2019-01-10T22:21:07.918Z,10.97
2019-01-10T22:23:35.251Z,11.40
2019-01-10T22:26:02.459Z,11.23
2019-01-10T22:28:29.959Z,11.43
2019-01-10T22:30:57.252Z,12.37
2019-01-10T22:33:24.588Z,11.60
2019-01-10T22:35:52.047Z,11.60
2019-01-10T22:38:19.456Z,10.80
2019-01-10T22:40:46.832Z,11.90
2019-01-10T22:43:14.180Z,11.70
2019-01-10T22:45:41.716Z,12.20
2019-01-10T22:48:09.059Z,11.47
2019-01-10T22:50:36.292Z,11.33
2019-01-10T22:53:03.644Z,11.00
2019-01-10T22:55:31.828Z,12.23
2019-01-10T22:57:59.280Z,12.57
2019-01-10T23:01:01.283Z,12.03
2019-01-10T23:03:28.668Z,11.87
2019-01-10T23:05:56.074Z,11.23
2019-01-10T23:08:23.532Z,11.20
2019-01-10T23:10:50.889Z,10.70
2019-01-10T23:13:18.231Z,11.40
2019-01-10T23:15:45.637Z,10.10
2019-01-10T23:18:13.223Z,9.93
2019-01-10T23:20:40.533Z,9.67
2019-01-10T23:23:09.177Z,9.40
2019-01-10T23:25:36.624Z,10.23
2019-01-10T23:28:04.272Z,9.10
2019-01-10T23:30:49.186Z,9.03
2019-01-10T23:33:18.186Z,9.47
2019-01-10T23:35:46.036Z,8.40
2019-01-10T23:38:15.235Z,7.90
2019-01-10T23:40:42.469Z,9.20
2019-01-10T23:43:09.754Z,8.13
2019-01-10T23:45:37.097Z,7.33
2019-01-10T23:48:04.390Z,7.70
2019-01-10T23:50:31.636Z,7.90
2019-01-10T23:52:59.139Z,8.20
2019-01-10T23:55:26.433Z,7.20
2019-01-10T23:57:53.742Z,6.77
